Latest Coastal Weather Observations for Barrow Island

IDW60701

Issued at 8:33 pm WST Sunday 9 August 2020 (issued every 10 minutes, with the page automatically refreshed every 10 minutes)

About coastal observations | Map of coastal stations | Coastal observations for WA | Marine services | Other Formats
Station Details ID: 005094 Name: BARROW ISLAND AIRPORT Lat: -20.87 Lon: 115.41 Height: 6.4 m
Data from the previous 72 hours. | See also: Recent months at Barrow Island
Date/Time
WST
Wind Sea
Height
m
Swell Vis
km
Cloud Weather Temp
°C
Press
hPa
Rain since
9am
mm
Dir  Spd
kts
Gust
kts
Height
m
Period
s
Dir
09/08:30pm N 16 21 - - - - - - - 24.7 1010.8 0.0
09/08:00pm N 15 19 - - - - - - - 24.7 1010.8 0.0
09/07:30pm N 16 20 - - - - - - - 24.6 1010.5 0.0
09/07:00pm N 15 19 - - - - - - - 24.5 1010.2 0.0
09/06:30pm N 16 21 - - - - - - - 24.5 1009.9 0.0
09/06:00pm N 16 20 - - - - - - - 24.6 1009.9 0.0
09/05:30pm N 18 24 - - - - - - - 25.0 1010.1 0.0
09/05:00pm N 17 22 - - - - - - - 25.6 1010.0 0.0
09/04:30pm N 20 25 - - - - - - - 25.8 1010.0 0.0
09/04:00pm N 20 25 - - - - - - - 26.5 1009.8 0.0
09/03:30pm N 20 27 - - - - - - - 26.8 1009.6 0.0
09/03:00pm N 19 25 - - - - - - - 26.8 1009.7 0.0
09/02:30pm N 21 28 - - - - - - - 27.5 1009.6 0.0
09/02:00pm N 21 27 - - - - - - - 27.6 1009.5 0.0
09/01:30pm N 19 26 - - - - - - - 27.9 1010.1 0.0
09/01:00pm N 20 26 - - - - - - - 27.5 1010.6 0.0
09/12:30pm N 22 28 - - - - - - - 26.7 1011.1 0.0
09/12:00pm N 22 31 - - - - - - - 27.5 1011.7 0.0
09/11:30am N 21 26 - - - - - - - 26.4 1011.9 0.0
09/11:00am N 21 28 - - - - - - - 26.1 1012.3 0.0
09/10:30am NNE 16 20 - - - - - - - 25.4 1012.7 0.0
09/10:00am N 17 24 - - - - - - - 23.6 1012.8 0.0
09/09:30am NNE 19 24 - - - - - - - 24.3 1012.8 0.0
09/09:00am NNE 21 27 - - - - - - - 23.3 1012.7 0.0
09/08:30am NNE 19 23 - - - - - - - 23.7 1012.7 0.0
09/08:00am NNE 16 22 - - - - - - - 23.0 1012.5 0.0
09/07:30am NNE 16 20 - - - - - - - 22.6 1012.3 0.0
09/07:00am NNE 12 15 - - - - - - - 21.9 1012.5 0.0
09/06:30am NNE 15 17 - - - - - - - 21.9 1012.0 0.0
09/06:00am NNE 13 15 - - - - - - - 21.2 1011.9 0.0
09/05:30am NNE 15 18 - - - - - - - 21.3 1011.6 0.0
09/05:00am NNE 11 13 - - - - - - - 20.5 1011.7 0.0
09/04:30am NNE 11 13 - - - - - - - 21.1 1011.7 0.0
09/04:00am NNE 12 13 - - - - - - - 21.1 1011.9 0.0
09/03:30am NNE 11 14 - - - - - - - 20.6 1012.0 0.0
09/03:00am NE 16 20 - - - - - - - 21.7 1011.9 0.0
09/02:30am NNE 13 16 - - - - - - - 21.2 1012.1 0.0
09/02:00am NNE 13 15 - - - - - - - 21.0 1012.4 0.0
09/01:30am NE 15 18 - - - - - - - 21.4 1012.6 0.0
09/01:00am NNE 15 17 - - - - - - - 21.4 1012.8 0.0
09/12:30am NE 16 19 - - - - - - - 21.5 1012.9 0.0
09/12:00am NE 17 20 - - - - - - - 21.5 1013.2 0.0
 
Date/Time
WST
Wind Sea
Height
m
Swell Vis
km
Cloud Weather Temp
°C
Press
hPa
Rain since
9am
mm
Dir  Spd
kts
Gust
kts
Height
m
Period
s
Dir
08/11:30pm NE 17 22 - - - - - - - 21.3 1013.4 0.0
08/11:00pm NE 17 21 - - - - - - - 21.2 1013.6 0.0
08/10:30pm NE 19 23 - - - - - - - 21.3 1013.6 0.0
08/10:00pm NE 20 24 - - - - - - - 21.3 1013.3 0.0
08/09:30pm NE 18 21 - - - - - - - 21.2 1013.3 0.0
08/09:00pm NE 20 25 - - - - - - - 21.3 1013.3 0.0
08/08:30pm NE 19 24 - - - - - - - 21.1 1013.2 0.0
08/08:00pm NE 20 23 - - - - - - - 21.2 1013.2 0.0
08/07:30pm NE 21 25 - - - - - - - 21.2 1012.9 0.0
08/07:00pm ENE 22 25 - - - - - - - 21.3 1012.9 0.0
08/06:30pm NE 21 26 - - - - - - - 21.3 1012.9 0.0
08/06:00pm NE 21 26 - - - - - - - 21.5 1013.0 0.0
08/05:30pm ENE 21 25 - - - - - - - 21.9 1013.1 0.0
08/05:00pm ENE 21 24 - - - - - - - 22.1 1013.2 0.0
08/04:30pm ENE 20 23 - - - - - - - 22.3 1013.3 0.0
08/04:00pm ENE 20 23 - - - - - - - 22.4 1013.3 0.0
08/03:30pm ENE 22 25 - - - - - - - 22.6 1013.0 0.0
08/03:00pm ENE 22 26 - - - - - - - 22.4 1012.7 0.0
08/02:30pm ENE 22 27 - - - - - - - 22.3 1012.8 0.0
08/02:00pm ENE 22 26 - - - - - - - 22.3 1013.1 0.0
08/01:30pm ENE 22 26 - - - - - - - 22.2 1013.4 0.0
08/01:00pm ENE 20 25 - - - - - - - 22.4 1014.3 0.0
08/12:30pm ENE 20 23 - - - - - - - 22.1 1014.8 0.0
08/12:00pm ENE 19 22 - - - - - - - 22.0 1015.7 0.0
08/11:30am ENE 18 21 - - - - - - - 22.2 1016.3 0.0
08/11:00am ENE 20 22 - - - - - - - 22.1 1016.2 0.0
08/10:30am ENE 20 23 - - - - - - - 22.2 1016.4 0.0
08/10:00am ENE 18 21 - - - - - - - 21.9 1016.6 0.0
08/09:30am E 14 17 - - - - - - - 21.5 1016.9 0.0
08/09:00am E 15 17 - - - - - - - 21.4 1016.8 0.0
08/08:30am E 15 17 - - - - - - - 20.8 1016.6 0.0
08/08:00am E 15 17 - - - - - - - 20.6 1016.4 0.0
08/07:30am E 15 18 - - - - - - - 20.1 1016.1 0.0
08/07:00am E 15 17 - - - - - - - 19.6 1015.9 0.0
08/06:30am ESE 15 18 - - - - - - - 19.4 1015.8 0.0
08/06:00am ESE 13 15 - - - - - - - 19.2 1015.6 0.0
08/05:30am NE 4 5 - - - - - - - 16.3 1015.3 0.0
08/05:00am NNE 5 6 - - - - - - - 16.3 1015.0 0.0
08/04:30am NNE 6 6 - - - - - - - 16.0 1015.0 0.0
08/04:00am N 6 7 - - - - - - - 15.6 1015.0 0.0
08/03:30am N 6 7 - - - - - - - 15.7 1015.1 0.0
08/03:00am N 7 8 - - - - - - - 15.4 1015.1 0.0
08/02:30am N 7 8 - - - - - - - 16.1 1015.1 0.0
08/02:00am N 7 8 - - - - - - - 15.7 1015.2 0.0
08/01:30am N 7 8 - - - - - - - 16.4 1015.4 0.0
08/01:00am N 8 9 - - - - - - - 16.5 1015.6 0.0
08/12:30am N 8 8 - - - - - - - 16.3 1015.8 0.0
08/12:00am N 9 9 - - - - - - - 16.5 1015.9 0.0
 
Date/Time
WST
Wind Sea
Height
m
Swell Vis
km
Cloud Weather Temp
°C
Press
hPa
Rain since
9am
mm
Dir  Spd
kts
Gust
kts
Height
m
Period
s
Dir
07/11:30pm NNE 8 9 - - - - - - - 16.1 1015.9 0.0
07/11:00pm N 7 9 - - - - - - - 16.7 1016.0 0.0
07/10:30pm N 9 10 - - - - - - - 17.5 1016.1 0.0
07/10:00pm N 10 11 - - - - - - - 17.5 1016.2 0.0
07/09:30pm N 10 11 - - - - - - - 17.6 1016.2 0.0
07/09:00pm N 9 11 - - - - - - - 18.2 1016.2 0.0
07/08:30pm N 9 10 - - - - - - - 18.3 1016.3 0.0
07/08:00pm NNE 12 13 - - - - - - - 19.5 1016.1 0.0
07/07:30pm NNE 12 15 - - - - - - - 19.4 1015.9 0.0
07/07:00pm NNE 10 12 - - - - - - - 19.3 1015.8 0.0
07/06:30pm NNE 9 12 - - - - - - - 19.6 1015.7 0.0
07/06:00pm NE 14 16 - - - - - - - 20.7 1015.5 0.0
07/05:30pm NE 17 20 - - - - - - - 21.6 1015.6 0.0
07/05:00pm NE 19 21 - - - - - - - 22.2 1015.5 0.0
07/04:30pm NE 18 22 - - - - - - - 22.7 1015.5 0.0
07/04:00pm NE 19 23 - - - - - - - 22.6 1015.6 0.0
07/03:30pm NE 20 24 - - - - - - - 22.5 1015.6 0.0
07/03:00pm NE 19 23 - - - - - - - 22.6 1016.1 0.0
07/02:30pm NE 20 23 - - - - - - - 22.3 1016.4 0.0
07/02:00pm NE 20 23 - - - - - - - 22.3 1016.9 0.0
07/01:30pm ENE 19 23 - - - - - - - 22.1 1017.4 0.0
07/01:00pm ENE 21 24 - - - - - - - 21.9 1017.7 0.0
07/12:30pm ENE 21 24 - - - - - - - 21.8 1018.0 0.0
07/12:00pm ENE 21 26 - - - - - - - 21.7 1018.3 0.0
07/11:30am ENE 23 27 - - - - - - - 21.7 1018.4 0.0
07/11:00am ENE 24 28 - - - - - - - 21.4 1018.5 0.0
07/10:30am ENE 25 29 - - - - - - - 21.2 1018.9 0.0
07/10:00am ENE 27 32 - - - - - - - 21.2 1018.9 0.0
07/09:30am ENE 27 31 - - - - - - - 21.1 1018.8 0.0
07/09:00am E 25 31 - - - - - - - 20.8 1018.1 0.0
07/08:30am E 24 28 - - - - - - - 20.6 1017.9 0.0
07/08:00am E 21 24 - - - - - - - 20.4 1017.3 0.0
07/07:55am E 20 24 - - - - - - - 20.4 1017.3 0.0
07/07:30am ESE 16 19 - - - - - - - 19.9 1017.1 0.0
07/07:00am SE 14 16 - - - - - - - 19.4 1016.7 0.0
07/06:30am SE 13 15 - - - - - - - 19.3 1016.5 0.0
07/06:00am SE 11 13 - - - - - - - 19.2 1016.1 0.0
07/05:30am ESE 11 13 - - - - - - - 19.2 1015.7 0.0
07/05:00am SE 11 13 - - - - - - - 19.4 1015.4 0.0
07/04:30am SE 10 11 - - - - - - - 19.4 1015.3 0.0
07/04:00am SE 12 13 - - - - - - - 19.7 1015.2 0.0
07/03:30am SSE 13 15 - - - - - - - 19.7 1015.3 0.0
07/03:00am SSE 11 13 - - - - - - - 19.8 1015.3 0.0
07/02:30am S 11 12 - - - - - - - 19.9 1015.4 0.0
07/02:00am S 9 10 - - - - - - - 19.5 1015.7 0.0
07/01:30am SSW 7 8 - - - - - - - 19.3 1015.9 0.0
07/01:00am S 7 8 - - - - - - - 19.4 1016.2 0.0
07/12:30am SSW 4 5 - - - - - - - 16.5 1016.3 0.0
07/12:00am SW 5 5 - - - - - - - 15.6 1016.4 0.0
 
Date/Time
WST
Wind Sea
Height
m
Swell Vis
km
Cloud Weather Temp
°C
Press
hPa
Rain since
9am
mm
Dir  Spd
kts
Gust
kts
Height
m
Period
s
Dir
06/11:30pm SW 5 6 - - - - - - - 15.7 1016.6 0.0
06/11:00pm SW 5 6 - - - - - - - 16.4 1016.9 0.0
06/10:30pm CALM 0 0 - - - - - - - 16.0 1016.7 0.0
06/10:00pm N 6 7 - - - - - - - 16.4 1016.4 0.0
06/09:30pm N 8 9 - - - - - - - 16.1 1016.2 0.0
06/09:00pm N 9 9 - - - - - - - 16.2 1016.5 0.0

Other formats

Comma delimited format used in spreadsheet applications
http://www.bom.gov.au/fwo/IDW60701/IDW60701.95304.axf

JavaScript Object Notation format (JSON) in row-major order
http://www.bom.gov.au/fwo/IDW60701/IDW60701.95304.json

Data quality

Most of these data are generated automatically and are frequently updated. Quality checks on data are not normally performed. It is possible for incorrect values to appear. Refer to information at About Latest Weather Observations and please check the disclaimer before using these data.